Windorah, Australia
Current Conditions -  °F | °C
As of 7:00 PM on Friday 19 Dec 2014 (Local Time) from YLRE Reporting Station
Clear Clear  
Wind Chill: 95°   Ceiling: Unl
Heat Index: 95°   Visibility: 6mi
Dew Point: 39°   Wind: 9mph
Humidity: 14%   Direction: 140°SE
Pressure: 29.83"   Gusts: NA
Location:  25.42°S, 142.66°E
Report Text: YLRE 190900Z AUTO 14008KT 9999 // NCD 35/04 Q1010
Loading
Personal Weather Stations






























Interactive Weather Map New forecast layout! Learn more

10-Day Weather Forecast

Advertisements
Track Severe Weather on mobile